createdAt,value
2018-11-20T00:01:07.064Z,101203.53
2018-11-20T00:04:09.789Z,101204.52
2018-11-20T00:07:12.545Z,101204.91
2018-11-20T00:09:56.329Z,101196.56
2018-11-20T00:15:16.600Z,101188.72
2018-11-20T00:18:00.372Z,101177.25
2018-11-20T00:20:44.171Z,101183.34
2018-11-20T00:23:27.958Z,101168.43
2018-11-20T00:26:11.713Z,101171.50
2018-11-20T00:29:14.479Z,101165.16
2018-11-20T00:31:58.252Z,101165.45
2018-11-20T00:34:42.037Z,101167.81
2018-11-20T00:40:22.015Z,101162.54
2018-11-20T00:43:05.775Z,101155.30
2018-11-20T00:45:49.564Z,101156.30
2018-11-20T00:48:33.327Z,101145.17
2018-11-20T00:51:17.088Z,101141.80
2018-11-20T00:54:12.792Z,101151.17
2018-11-20T00:57:15.572Z,101147.50
2018-11-20T00:59:46.651Z,101137.48
2018-11-20T01:02:30.404Z,101134.47
2018-11-20T01:05:14.166Z,101133.64
2018-11-20T01:07:57.962Z,101126.97
2018-11-20T01:10:41.709Z,101125.28
2018-11-20T01:13:25.611Z,101117.39
2018-11-20T01:16:09.382Z,101121.09
2018-11-20T01:18:45.702Z,101122.63
2018-11-20T01:21:29.465Z,101116.28
2018-11-20T01:24:13.249Z,101110.80
2018-11-20T01:26:57.012Z,101110.30
2018-11-20T01:29:40.781Z,101108.48
2018-11-20T01:32:43.624Z,101106.53
2018-11-20T01:35:27.396Z,101096.62
2018-11-20T01:38:11.151Z,101094.61
2018-11-20T01:40:54.914Z,101093.83
2018-11-20T01:43:57.652Z,101093.16
2018-11-20T01:46:41.414Z,101088.86
2018-11-20T01:49:25.249Z,101086.19
2018-11-20T01:52:27.992Z,101090.33
2018-11-20T01:55:11.732Z,101080.47
2018-11-20T01:57:55.517Z,101068.81
2018-11-20T02:00:39.261Z,101064.13
2018-11-20T02:05:49.081Z,101078.67
2018-11-20T02:08:32.819Z,101065.93
2018-11-20T02:11:35.542Z,101071.02
2018-11-20T02:14:21.866Z,101078.78
2018-11-20T02:17:26.055Z,101070.08
2018-11-20T02:19:58.482Z,101062.52
2018-11-20T02:22:42.248Z,101049.82
2018-11-20T02:25:26.759Z,101057.17
2018-11-20T02:28:10.513Z,101056.61
2018-11-20T02:30:54.272Z,101055.00
2018-11-20T02:33:38.034Z,101050.75
2018-11-20T02:36:21.777Z,101047.84
2018-11-20T02:39:20.337Z,101037.83
2018-11-20T02:42:04.082Z,101034.67
2018-11-20T02:44:47.064Z,101029.73
2018-11-20T02:47:30.839Z,101040.14
2018-11-20T02:50:26.791Z,101032.72
2018-11-20T02:53:10.558Z,101034.02
2018-11-20T02:55:54.359Z,101028.88
2018-11-20T02:58:57.097Z,101032.89
2018-11-20T03:01:40.900Z,101031.64
2018-11-20T03:04:24.763Z,101025.09
2018-11-20T03:09:45.058Z,101004.95
2018-11-20T03:12:28.833Z,101002.94
2018-11-20T03:15:12.597Z,100993.77
2018-11-20T03:18:15.351Z,100997.36
2018-11-20T03:20:59.125Z,100989.11
2018-11-20T03:24:01.884Z,100997.80
2018-11-20T03:26:45.660Z,101003.09
2018-11-20T03:29:42.753Z,101007.31
2018-11-20T03:32:26.533Z,101005.94
2018-11-20T03:35:10.418Z,101009.14
2018-11-20T03:37:54.213Z,100998.32
2018-11-20T03:40:38.014Z,101003.45
2018-11-20T03:43:21.755Z,101007.89
2018-11-20T03:46:17.454Z,100997.47
2018-11-20T03:49:01.190Z,101002.27
2018-11-20T03:51:44.965Z,101000.09
2018-11-20T03:54:15.968Z,101001.88
2018-11-20T03:56:59.728Z,101003.03
2018-11-20T03:59:43.461Z,100998.69
2018-11-20T04:02:18.827Z,101003.45
2018-11-20T04:04:54.509Z,101003.73
2018-11-20T04:07:38.288Z,101005.47
2018-11-20T04:10:22.010Z,100995.48
2018-11-20T04:13:03.921Z,101002.47
2018-11-20T04:15:47.664Z,101002.61
2018-11-20T04:18:31.426Z,101003.42
2018-11-20T04:21:34.192Z,101009.87
2018-11-20T04:24:17.989Z,101016.83
2018-11-20T04:27:20.698Z,101020.05
2018-11-20T04:30:04.509Z,101008.44
2018-11-20T04:32:48.250Z,101009.97
2018-11-20T04:35:32.744Z,101009.23
2018-11-20T04:38:16.469Z,100999.42
2018-11-20T04:41:00.298Z,100996.20
2018-11-20T04:43:44.034Z,101006.87
2018-11-20T04:46:27.841Z,100998.12
2018-11-20T04:49:11.596Z,101005.80
2018-11-20T04:52:14.335Z,101009.27
2018-11-20T04:54:58.081Z,101013.53
2018-11-20T04:57:34.673Z,101016.87
2018-11-20T05:00:18.396Z,101013.03
2018-11-20T05:03:21.134Z,101017.63
2018-11-20T05:06:04.891Z,101013.63
2018-11-20T05:08:35.033Z,101003.46
2018-11-20T05:11:18.773Z,100994.58
2018-11-20T05:14:02.561Z,100998.99
2018-11-20T05:17:05.281Z,101010.67
2018-11-20T05:19:49.072Z,101006.97
2018-11-20T05:22:32.802Z,101007.89
2018-11-20T05:25:16.627Z,101007.77
2018-11-20T05:28:00.393Z,101003.45
2018-11-20T05:30:44.145Z,101011.61
2018-11-20T05:33:19.106Z,101001.66
2018-11-20T05:36:02.878Z,100994.50
2018-11-20T05:41:22.644Z,100990.02
2018-11-20T05:44:20.217Z,100996.68
2018-11-20T05:47:04.001Z,100984.16
2018-11-20T05:49:47.747Z,100980.90
2018-11-20T05:52:31.560Z,100978.00
2018-11-20T05:55:04.302Z,100984.45
2018-11-20T05:57:48.076Z,100976.85
2018-11-20T06:00:31.822Z,100973.70
2018-11-20T06:03:15.616Z,100981.05
2018-11-20T06:05:59.417Z,100992.59
2018-11-20T06:08:43.143Z,100990.55
2018-11-20T06:11:34.023Z,100997.77
2018-11-20T06:14:17.825Z,101011.19
2018-11-20T06:17:01.571Z,100994.58
2018-11-20T06:20:04.310Z,100998.69
2018-11-20T06:22:48.035Z,100998.74
2018-11-20T06:25:31.843Z,101014.46
2018-11-20T06:28:15.578Z,101016.66
2018-11-20T06:33:35.853Z,101017.73
2018-11-20T06:36:19.743Z,101027.48
2018-11-20T06:39:03.650Z,101024.86
2018-11-20T06:41:47.386Z,101024.48
2018-11-20T06:44:31.238Z,101023.17
2018-11-20T06:47:15.123Z,101034.00
2018-11-20T06:49:58.767Z,101019.05
2018-11-20T06:52:42.572Z,101023.42
2018-11-20T06:55:26.585Z,101009.74
2018-11-20T06:58:10.333Z,101016.47
2018-11-20T07:00:46.272Z,101016.20
2018-11-20T07:03:30.043Z,101016.89
2018-11-20T07:06:13.849Z,101013.88
2018-11-20T07:08:57.591Z,101019.63
2018-11-20T07:11:41.371Z,101024.87
2018-11-20T07:14:36.779Z,101026.06
2018-11-20T07:17:41.362Z,101032.25
2018-11-20T07:20:25.905Z,101024.07
2018-11-20T07:23:09.693Z,101021.80
2018-11-20T07:25:53.464Z,101016.63
2018-11-20T07:28:37.298Z,101012.31
2018-11-20T07:31:21.063Z,101007.43
2018-11-20T07:34:23.853Z,101013.36
2018-11-20T07:37:16.479Z,101021.09
2018-11-20T07:39:48.409Z,101024.50
2018-11-20T07:42:51.196Z,101025.56
2018-11-20T07:45:34.969Z,101018.77
2018-11-20T07:48:18.818Z,101008.77
2018-11-20T07:51:02.594Z,101005.33
2018-11-20T07:53:57.555Z,101001.16
2018-11-20T07:56:41.379Z,100990.05
2018-11-20T07:59:25.297Z,100961.95
2018-11-20T08:02:09.146Z,100961.09
2018-11-20T08:04:52.831Z,100961.39
2018-11-20T08:07:36.648Z,100961.09
2018-11-20T08:10:08.872Z,100964.11
2018-11-20T08:12:52.698Z,100961.09
2018-11-20T08:15:36.503Z,100958.13
2018-11-20T08:18:20.313Z,100960.61
2018-11-20T08:21:04.070Z,100955.56
2018-11-20T08:23:47.855Z,100966.17
2018-11-20T08:26:31.732Z,100966.09
2018-11-20T08:29:15.428Z,100955.48
2018-11-20T08:31:59.181Z,100953.40
2018-11-20T08:34:43.025Z,100949.42
2018-11-20T08:37:32.181Z,100948.80
2018-11-20T08:40:15.993Z,100943.89
2018-11-20T08:42:59.788Z,100944.25
2018-11-20T08:45:38.943Z,100940.14
2018-11-20T08:48:22.803Z,100935.36
2018-11-20T08:51:06.470Z,100930.57
2018-11-20T08:53:50.304Z,100925.94
2018-11-20T08:56:34.059Z,100937.27
2018-11-20T08:59:17.807Z,100930.33
2018-11-20T09:02:01.579Z,100936.44
2018-11-20T09:04:45.338Z,100939.77
2018-11-20T09:07:29.123Z,100929.96
2018-11-20T09:10:31.937Z,100924.09
2018-11-20T09:13:15.600Z,100927.18
2018-11-20T09:15:59.354Z,100920.90
2018-11-20T09:18:43.170Z,100921.28
2018-11-20T09:21:27.664Z,100922.38
2018-11-20T09:24:30.413Z,100908.48
2018-11-20T09:27:07.903Z,100907.06
2018-11-20T09:29:51.723Z,100903.17
2018-11-20T09:32:22.188Z,100913.81
2018-11-20T09:35:06.208Z,100919.48
2018-11-20T09:37:49.808Z,100911.92
2018-11-20T09:43:27.926Z,100899.77
2018-11-20T09:46:30.775Z,100884.53
2018-11-20T09:49:33.453Z,100885.75
2018-11-20T09:52:17.251Z,100888.02
2018-11-20T09:55:00.987Z,100883.38
2018-11-20T09:57:44.786Z,100875.95
2018-11-20T10:00:28.697Z,100867.67
2018-11-20T10:03:31.468Z,100861.87
2018-11-20T10:06:15.222Z,100854.01
2018-11-20T10:08:59.023Z,100856.09
2018-11-20T10:11:42.796Z,100847.46
2018-11-20T10:14:26.648Z,100846.41
2018-11-20T10:17:29.314Z,100836.84
2018-11-20T10:20:13.089Z,100837.76
2018-11-20T10:23:15.819Z,100831.72
2018-11-20T10:25:59.733Z,100842.36
2018-11-20T10:28:43.373Z,100837.63
2018-11-20T10:31:27.179Z,100837.52
2018-11-20T10:34:10.985Z,100826.22
2018-11-20T10:36:54.790Z,100823.48
2018-11-20T10:39:57.525Z,100820.71
2018-11-20T10:42:41.367Z,100824.38
2018-11-20T10:45:25.629Z,100813.44
2018-11-20T10:48:09.376Z,100810.90
2018-11-20T10:51:12.142Z,100817.56
2018-11-20T10:53:55.881Z,100819.72
2018-11-20T10:56:39.612Z,100808.73
2018-11-20T10:59:23.626Z,100812.47
2018-11-20T11:02:26.314Z,100810.08
2018-11-20T11:05:29.075Z,100810.05
2018-11-20T11:08:12.927Z,100802.05
2018-11-20T11:10:56.666Z,100806.73
2018-11-20T11:13:59.398Z,100804.19
2018-11-20T11:16:43.191Z,100793.38
2018-11-20T11:19:45.907Z,100800.66
2018-11-20T11:22:29.687Z,100791.62
2018-11-20T11:25:13.450Z,100798.30
2018-11-20T11:27:57.227Z,100799.89
2018-11-20T11:30:41.001Z,100792.45
2018-11-20T11:33:43.762Z,100798.20
2018-11-20T11:36:27.560Z,100791.92
2018-11-20T11:39:11.352Z,100799.29
2018-11-20T11:42:14.078Z,100788.05
2018-11-20T11:44:57.907Z,100797.06
2018-11-20T11:47:41.689Z,100795.53
2018-11-20T11:50:25.468Z,100792.20
2018-11-20T11:53:09.249Z,100785.91
2018-11-20T11:56:12.006Z,100782.11
2018-11-20T11:58:55.757Z,100784.46
2018-11-20T12:04:16.169Z,100773.23
2018-11-20T12:06:59.967Z,100772.91
2018-11-20T12:09:43.721Z,100769.92
2018-11-20T12:12:27.509Z,100759.33
2018-11-20T12:15:11.261Z,100760.53
2018-11-20T12:18:14.017Z,100752.09
2018-11-20T12:20:57.776Z,100748.38
2018-11-20T12:23:41.583Z,100752.67
2018-11-20T12:26:44.380Z,100751.32
2018-11-20T12:29:28.179Z,100745.61
2018-11-20T12:32:30.905Z,100745.42
2018-11-20T12:35:15.622Z,100747.58
2018-11-20T12:37:59.353Z,100726.34
2018-11-20T12:40:42.268Z,100731.23
2018-11-20T12:43:26.036Z,100732.80
2018-11-20T12:46:13.109Z,100734.77
2018-11-20T12:48:53.627Z,100719.24
2018-11-20T12:51:37.456Z,100728.72
2018-11-20T12:54:21.238Z,100722.80
2018-11-20T12:59:41.897Z,100719.26
2018-11-20T13:05:02.222Z,100719.85
2018-11-20T13:07:45.983Z,100712.95
2018-11-20T13:10:29.806Z,100708.25
2018-11-20T13:13:13.569Z,100699.00
2018-11-20T13:15:57.374Z,100688.61
2018-11-20T13:18:41.151Z,100698.81
2018-11-20T13:21:44.946Z,100697.64
2018-11-20T13:24:29.434Z,100684.27
2018-11-20T13:27:11.469Z,100669.71
2018-11-20T13:29:55.231Z,100673.84
2018-11-20T13:32:57.994Z,100677.20
2018-11-20T13:35:41.957Z,100674.64
2018-11-20T13:38:44.634Z,100673.45
2018-11-20T13:41:51.907Z,100667.16
2018-11-20T13:44:34.787Z,100667.59
2018-11-20T13:47:18.582Z,100670.53
2018-11-20T13:50:02.389Z,100664.04
2018-11-20T13:57:58.580Z,100663.64
2018-11-20T14:00:37.766Z,100658.33
2018-11-20T14:03:29.000Z,100665.81
2018-11-20T14:06:31.758Z,100652.44
2018-11-20T14:09:15.593Z,100662.67
2018-11-20T14:11:59.394Z,100672.28
2018-11-20T14:14:43.277Z,100659.91
2018-11-20T14:17:43.959Z,100671.48
2018-11-20T14:20:27.839Z,100655.19
2018-11-20T14:23:11.612Z,100655.59
2018-11-20T14:25:55.458Z,100646.74
2018-11-20T14:28:39.240Z,100651.25
2018-11-20T14:31:23.078Z,100649.28
2018-11-20T14:34:06.839Z,100654.39
2018-11-20T14:39:27.754Z,100658.73
2018-11-20T14:42:11.567Z,100665.00
2018-11-20T14:44:55.328Z,100667.75
2018-11-20T14:47:39.192Z,100666.59
2018-11-20T14:50:34.344Z,100671.70
2018-11-20T14:53:18.217Z,100658.31
2018-11-20T14:56:02.000Z,100660.31
2018-11-20T14:58:45.778Z,100658.93
2018-11-20T15:01:29.552Z,100659.13
2018-11-20T15:04:13.398Z,100658.70
2018-11-20T15:06:57.153Z,100656.14
2018-11-20T15:09:40.959Z,100665.20
2018-11-20T15:12:24.744Z,100662.26
2018-11-20T15:15:08.550Z,100652.44
2018-11-20T15:17:52.320Z,100662.06
2018-11-20T15:20:36.183Z,100662.04
2018-11-20T15:23:19.977Z,100652.44
2018-11-20T15:25:52.803Z,100652.83
2018-11-20T15:28:36.588Z,100654.00
2018-11-20T15:31:20.388Z,100658.73
2018-11-20T15:34:04.173Z,100660.31
2018-11-20T15:36:47.991Z,100665.39
2018-11-20T15:39:31.797Z,100669.14
2018-11-20T15:42:13.624Z,100663.63
2018-11-20T15:44:57.426Z,100679.17
2018-11-20T15:47:41.273Z,100687.02
2018-11-20T15:50:27.127Z,100687.02
2018-11-20T15:53:11.085Z,100687.59
2018-11-20T15:55:54.864Z,100684.45
2018-11-20T15:58:38.672Z,100682.88
2018-11-20T16:01:23.102Z,100695.78
2018-11-20T16:04:06.251Z,100700.15
2018-11-20T16:06:50.028Z,100703.10
2018-11-20T16:09:33.863Z,100701.14
2018-11-20T16:12:17.633Z,100707.06
2018-11-20T16:15:01.418Z,100698.77
2018-11-20T16:17:45.251Z,100699.16
2018-11-20T16:20:29.073Z,100705.08
2018-11-20T16:23:12.858Z,100712.91
2018-11-20T16:25:56.664Z,100716.83
2018-11-20T16:28:40.445Z,100721.98
2018-11-20T16:31:24.629Z,100720.20
2018-11-20T16:34:08.457Z,100733.75
2018-11-20T16:36:52.325Z,100735.86
2018-11-20T16:39:36.126Z,100736.13
2018-11-20T16:42:19.946Z,100743.59
2018-11-20T16:45:04.720Z,100748.49
2018-11-20T16:47:48.556Z,100741.61
2018-11-20T16:50:32.331Z,100744.75
2018-11-20T16:53:35.169Z,100745.12
2018-11-20T16:56:37.893Z,100740.72
2018-11-20T16:59:40.648Z,100743.72
2018-11-20T17:02:24.781Z,100748.92
2018-11-20T17:05:08.616Z,100748.91
2018-11-20T17:07:56.120Z,100745.97
2018-11-20T17:10:36.209Z,100748.66
2018-11-20T17:13:19.964Z,100754.39
2018-11-20T17:16:03.766Z,100745.09
2018-11-20T17:18:47.582Z,100755.06
2018-11-20T17:21:31.421Z,100746.59
2018-11-20T17:24:15.208Z,100751.77
2018-11-20T17:26:59.113Z,100745.89
2018-11-20T17:29:42.896Z,100746.38
2018-11-20T17:36:13.631Z,100755.94
2018-11-20T17:38:57.528Z,100748.52
2018-11-20T17:41:41.344Z,100741.41
2018-11-20T17:44:47.474Z,100741.11
2018-11-20T17:47:40.184Z,100732.52
2018-11-20T17:50:24.529Z,100734.83
2018-11-20T17:53:08.287Z,100733.36
2018-11-20T17:55:52.118Z,100739.91
2018-11-20T17:58:35.892Z,100740.65
2018-11-20T18:01:38.715Z,100744.95
2018-11-20T18:04:22.504Z,100744.65
2018-11-20T18:07:06.274Z,100747.96
2018-11-20T18:09:50.103Z,100752.37
2018-11-20T18:12:33.938Z,100749.02
2018-11-20T18:15:17.734Z,100748.85
2018-11-20T18:18:01.558Z,100743.61
2018-11-20T18:23:22.021Z,100756.85
2018-11-20T18:26:05.793Z,100753.30
2018-11-20T18:29:08.668Z,100752.03
2018-11-20T18:31:52.437Z,100755.97
2018-11-20T18:34:36.564Z,100758.32
2018-11-20T18:37:20.195Z,100756.02
2018-11-20T18:40:16.083Z,100758.50
2018-11-20T18:43:00.024Z,100755.89
2018-11-20T18:45:43.938Z,100747.94
2018-11-20T18:48:27.748Z,100753.25
2018-11-20T18:51:14.149Z,100753.66
2018-11-20T18:53:57.919Z,100754.22
2018-11-20T18:56:41.843Z,100754.48
2018-11-20T18:59:26.005Z,100752.73
2018-11-20T19:02:10.029Z,100754.31
2018-11-20T19:04:53.815Z,100751.98
2018-11-20T19:07:37.717Z,100760.94
2018-11-20T19:10:22.098Z,100697.60
2018-11-20T19:13:06.019Z,100755.88
2018-11-20T19:15:49.816Z,100759.97
2018-11-20T19:18:33.716Z,100759.58
2018-11-20T19:21:17.491Z,100761.94
2018-11-20T19:24:01.385Z,100767.94
2018-11-20T19:26:45.179Z,100769.17
2018-11-20T19:29:29.130Z,100777.97
2018-11-20T19:32:12.913Z,100766.83
2018-11-20T19:34:53.152Z,100773.58
2018-11-20T19:40:13.839Z,100775.13
2018-11-20T19:43:16.580Z,100776.09
2018-11-20T19:46:00.404Z,100781.06
2018-11-20T19:49:03.154Z,100780.23
2018-11-20T19:51:46.959Z,100790.58
2018-11-20T19:54:30.769Z,100790.50
2018-11-20T19:57:33.963Z,100793.08
2018-11-20T20:00:07.218Z,100789.09
2018-11-20T20:03:10.059Z,100793.91
2018-11-20T20:05:53.863Z,100787.92
2018-11-20T20:08:37.719Z,100795.47
2018-11-20T20:11:21.537Z,100794.70
2018-11-20T20:14:05.403Z,100806.15
2018-11-20T20:16:49.212Z,100803.28
2018-11-20T20:19:24.409Z,100798.81
2018-11-20T20:22:08.224Z,100801.38
2018-11-20T20:24:52.227Z,100800.17
2018-11-20T20:27:36.218Z,100808.84
2018-11-20T20:30:20.091Z,100807.09
2018-11-20T20:33:03.912Z,100804.80
2018-11-20T20:35:47.767Z,100814.20
2018-11-20T20:38:31.571Z,100815.36
2018-11-20T20:41:15.412Z,100809.53
2018-11-20T20:43:59.189Z,100818.05
2018-11-20T20:46:43.016Z,100821.59
2018-11-20T20:49:45.801Z,100821.30
2018-11-20T20:52:29.616Z,100825.23
2018-11-20T20:55:13.424Z,100830.55
2018-11-20T20:57:57.234Z,100831.55
2018-11-20T21:00:41.730Z,100827.15
2018-11-20T21:03:25.539Z,100833.08
2018-11-20T21:06:09.329Z,100830.91
2018-11-20T21:09:12.117Z,100831.48
2018-11-20T21:11:55.934Z,100833.02
2018-11-20T21:14:39.787Z,100831.48
2018-11-20T21:17:23.558Z,100832.92
2018-11-20T21:20:26.399Z,100825.72
2018-11-20T21:23:10.146Z,100829.48
2018-11-20T21:25:54.018Z,100833.34
2018-11-20T21:28:37.850Z,100845.67
2018-11-20T21:31:21.652Z,100848.08
2018-11-20T21:34:24.388Z,100843.38
2018-11-20T21:37:08.218Z,100845.30
2018-11-20T21:39:52.005Z,100843.37
2018-11-20T21:42:35.843Z,100851.20
2018-11-20T21:45:19.643Z,100847.13
2018-11-20T21:48:22.428Z,100846.94
2018-11-20T21:51:06.185Z,100850.97
2018-11-20T21:53:50.005Z,100849.95
2018-11-20T21:56:33.788Z,100852.42
2018-11-20T21:59:19.477Z,100858.91
2018-11-20T22:01:54.254Z,100871.28
2018-11-20T22:04:38.063Z,100875.34
2018-11-20T22:07:21.839Z,100877.34
2018-11-20T22:10:05.643Z,100879.94
2018-11-20T22:13:08.374Z,100882.69
2018-11-20T22:16:11.162Z,100884.22
2018-11-20T22:18:54.919Z,100893.36
2018-11-20T22:21:38.705Z,100904.73
2018-11-20T22:24:14.474Z,100899.41
2018-11-20T22:26:58.272Z,100893.23
2018-11-20T22:29:42.066Z,100904.17
2018-11-20T22:32:25.870Z,100898.20
2018-11-20T22:35:04.064Z,100897.46
2018-11-20T22:37:47.905Z,100902.73
2018-11-20T22:40:47.197Z,100910.95
2018-11-20T22:43:31.005Z,100913.42
2018-11-20T22:46:14.795Z,100925.70
2018-11-20T22:48:58.930Z,100925.99
2018-11-20T22:51:42.714Z,100925.59
2018-11-20T22:54:26.466Z,100932.09
2018-11-20T22:57:29.246Z,100921.19
2018-11-20T23:00:06.220Z,100926.23
2018-11-20T23:02:49.997Z,100925.13
2018-11-20T23:05:32.047Z,100923.45
2018-11-20T23:07:57.905Z,100923.22
2018-11-20T23:10:41.977Z,100924.52
2018-11-20T23:13:07.004Z,100922.69
2018-11-20T23:15:32.063Z,100920.41
2018-11-20T23:17:57.189Z,100916.33
2018-11-20T23:22:58.451Z,100912.34
2018-11-20T23:25:23.494Z,100911.30
2018-11-20T23:28:07.550Z,100911.02
2018-11-20T23:30:44.393Z,100902.06
2018-11-20T23:33:09.475Z,100904.33
2018-11-20T23:35:34.513Z,100909.39
2018-11-20T23:37:59.599Z,100909.97
2018-11-20T23:40:24.651Z,100916.33
2018-11-20T23:42:49.757Z,100914.86
2018-11-20T23:45:15.430Z,100915.89
2018-11-20T23:47:59.528Z,100924.41
2018-11-20T23:50:24.771Z,100915.89
2018-11-20T23:53:08.892Z,100913.83
2018-11-20T23:55:34.014Z,100912.39
2018-11-20T23:57:59.108Z,100918.59
